sensor_id;sensor_type;location;lat;lon;timestamp;pressure;altitude;pressure_sealevel;temperature;humidity
31357;BME280;60001;48.404;11.738;2022-07-29T00:01:28;96216.09;;;22.06;65.34
31357;BME280;60001;48.404;11.738;2022-07-29T00:03:00;96219.06;;;22.04;65.38
31357;BME280;60001;48.404;11.738;2022-07-29T00:04:36;96224.34;;;22.01;65.35
31357;BME280;60001;48.404;11.738;2022-07-29T00:06:08;96220.06;;;22.00;65.34
31357;BME280;60001;48.404;11.738;2022-07-29T00:07:40;96215.03;;;21.98;65.40
31357;BME280;60001;48.404;11.738;2022-07-29T00:09:12;96219.91;;;21.96;65.74
31357;BME280;60001;48.404;11.738;2022-07-29T00:10:44;96211.41;;;21.94;65.84
31357;BME280;60001;48.404;11.738;2022-07-29T00:12:16;96215.22;;;21.93;65.55
31357;BME280;60001;48.404;11.738;2022-07-29T00:13:48;96219.34;;;21.91;65.71
31357;BME280;60001;48.404;11.738;2022-07-29T00:15:20;96224.25;;;21.88;65.97
31357;BME280;60001;48.404;11.738;2022-07-29T00:16:52;96222.22;;;21.85;65.77
31357;BME280;60001;48.404;11.738;2022-07-29T00:18:24;96221.75;;;21.83;65.51
31357;BME280;60001;48.404;11.738;2022-07-29T00:19:57;96229.34;;;21.81;65.09
31357;BME280;60001;48.404;11.738;2022-07-29T00:21:28;96225.41;;;21.79;65.18
31357;BME280;60001;48.404;11.738;2022-07-29T00:23:01;96223.53;;;21.79;64.99
31357;BME280;60001;48.404;11.738;2022-07-29T00:24:32;96225.75;;;21.77;65.54
31357;BME280;60001;48.404;11.738;2022-07-29T00:26:07;96217.69;;;21.77;65.39
31357;BME280;60001;48.404;11.738;2022-07-29T00:27:40;96215.63;;;21.74;65.40
31357;BME280;60001;48.404;11.738;2022-07-29T00:29:12;96215.19;;;21.72;65.44
31357;BME280;60001;48.404;11.738;2022-07-29T00:30:43;96208.56;;;21.70;65.19
31357;BME280;60001;48.404;11.738;2022-07-29T00:32:14;96212.66;;;21.67;65.21
31357;BME280;60001;48.404;11.738;2022-07-29T00:33:46;96210.66;;;21.64;65.11
31357;BME280;60001;48.404;11.738;2022-07-29T00:35:19;96205.56;;;21.62;65.69
31357;BME280;60001;48.404;11.738;2022-07-29T00:37:09;96208.91;;;21.59;65.32
31357;BME280;60001;48.404;11.738;2022-07-29T00:38:39;96208.91;;;21.59;65.35
31357;BME280;60001;48.404;11.738;2022-07-29T00:40:14;96205.78;;;21.57;65.40
31357;BME280;60001;48.404;11.738;2022-07-29T00:41:46;96211.94;;;21.58;65.86
31357;BME280;60001;48.404;11.738;2022-07-29T00:43:18;96211.00;;;21.54;66.06
31357;BME280;60001;48.404;11.738;2022-07-29T00:44:50;96202.47;;;21.52;65.92
31357;BME280;60001;48.404;11.738;2022-07-29T00:46:20;96202.31;;;21.48;65.37
31357;BME280;60001;48.404;11.738;2022-07-29T00:47:52;96205.34;;;21.47;65.20
31357;BME280;60001;48.404;11.738;2022-07-29T00:49:24;96201.88;;;21.46;65.39
31357;BME280;60001;48.404;11.738;2022-07-29T00:50:57;96194.94;;;21.45;65.02
31357;BME280;60001;48.404;11.738;2022-07-29T00:52:29;96188.63;;;21.41;65.11
31357;BME280;60001;48.404;11.738;2022-07-29T00:54:02;96188.50;;;21.38;65.14
31357;BME280;60001;48.404;11.738;2022-07-29T00:55:34;96187.25;;;21.35;64.64
31357;BME280;60001;48.404;11.738;2022-07-29T00:57:07;96196.09;;;21.36;64.50
31357;BME280;60001;48.404;11.738;2022-07-29T00:58:39;96195.75;;;21.37;64.41
31357;BME280;60001;48.404;11.738;2022-07-29T01:00:15;96200.03;;;21.38;64.37
31357;BME280;60001;48.404;11.738;2022-07-29T01:01:47;96205.38;;;21.38;64.09
31357;BME280;60001;48.404;11.738;2022-07-29T01:03:19;96204.94;;;21.36;64.23
31357;BME280;60001;48.404;11.738;2022-07-29T01:04:51;96206.84;;;21.36;64.55
31357;BME280;60001;48.404;11.738;2022-07-29T01:06:24;96207.91;;;21.34;65.06
31357;BME280;60001;48.404;11.738;2022-07-29T01:07:57;96205.22;;;21.34;65.29
31357;BME280;60001;48.404;11.738;2022-07-29T01:09:32;96205.56;;;21.33;65.38
31357;BME280;60001;48.404;11.738;2022-07-29T01:11:09;96196.72;;;21.32;65.26
31357;BME280;60001;48.404;11.738;2022-07-29T01:12:44;96197.06;;;21.31;65.29
31357;BME280;60001;48.404;11.738;2022-07-29T01:14:18;96194.38;;;21.31;65.11
31357;BME280;60001;48.404;11.738;2022-07-29T01:15:56;96192.78;;;21.30;65.27
31357;BME280;60001;48.404;11.738;2022-07-29T01:17:36;96186.97;;;21.28;65.25
31357;BME280;60001;48.404;11.738;2022-07-29T01:19:32;96196.41;;;21.25;65.73
31357;BME280;60001;48.404;11.738;2022-07-29T01:21:27;96186.00;;;21.24;65.77
31357;BME280;60001;48.404;11.738;2022-07-29T01:25:17;96188.22;;;21.22;65.79
31357;BME280;60001;48.404;11.738;2022-07-29T01:26:58;96188.06;;;21.18;65.62
31357;BME280;60001;48.404;11.738;2022-07-29T01:28:52;96191.06;;;21.17;65.81
31357;BME280;60001;48.404;11.738;2022-07-29T01:30:27;96189.84;;;21.14;65.86
31357;BME280;60001;48.404;11.738;2022-07-29T01:32:04;96194.25;;;21.10;66.03
31357;BME280;60001;48.404;11.738;2022-07-29T01:33:42;96196.16;;;21.10;65.97
31357;BME280;60001;48.404;11.738;2022-07-29T01:35:25;96198.06;;;21.09;66.47
31357;BME280;60001;48.404;11.738;2022-07-29T01:37:06;96188.72;;;21.06;66.18
31357;BME280;60001;48.404;11.738;2022-07-29T01:38:42;96194.44;;;21.05;67.13
31357;BME280;60001;48.404;11.738;2022-07-29T01:40:22;96200.13;;;21.03;66.31
31357;BME280;60001;48.404;11.738;2022-07-29T01:42:01;96199.66;;;21.01;66.38
31357;BME280;60001;48.404;11.738;2022-07-29T01:43:44;96190.19;;;20.95;66.60
31357;BME280;60001;48.404;11.738;2022-07-29T01:45:26;96198.59;;;20.94;67.62
31357;BME280;60001;48.404;11.738;2022-07-29T01:47:05;96196.53;;;20.91;67.44
31357;BME280;60001;48.404;11.738;2022-07-29T01:48:47;96194.50;;;20.88;67.58
31357;BME280;60001;48.404;11.738;2022-07-29T01:50:28;96190.84;;;20.84;67.61
31357;BME280;60001;48.404;11.738;2022-07-29T01:52:07;96182.69;;;20.80;67.99
31357;BME280;60001;48.404;11.738;2022-07-29T01:53:48;96176.34;;;20.76;68.08
31357;BME280;60001;48.404;11.738;2022-07-29T01:55:28;96171.66;;;20.73;68.27
31357;BME280;60001;48.404;11.738;2022-07-29T01:57:02;96164.88;;;20.67;67.77
31357;BME280;60001;48.404;11.738;2022-07-29T01:58:37;96174.31;;;20.64;68.45
31357;BME280;60001;48.404;11.738;2022-07-29T02:00:13;96163.44;;;20.61;68.95
31357;BME280;60001;48.404;11.738;2022-07-29T02:01:47;96152.56;;;20.57;69.21
31357;BME280;60001;48.404;11.738;2022-07-29T02:03:23;96156.34;;;20.56;68.39
31357;BME280;60001;48.404;11.738;2022-07-29T02:04:57;96159.03;;;20.56;68.91
31357;BME280;60001;48.404;11.738;2022-07-29T02:06:33;96159.03;;;20.56;68.42
31357;BME280;60001;48.404;11.738;2022-07-29T02:08:08;96149.41;;;20.55;69.26
31357;BME280;60001;48.404;11.738;2022-07-29T02:09:42;96156.69;;;20.55;68.97
31357;BME280;60001;48.404;11.738;2022-07-29T02:11:16;96145.00;;;20.50;68.63
31357;BME280;60001;48.404;11.738;2022-07-29T02:12:50;96150.69;;;20.49;69.22
31357;BME280;60001;48.404;11.738;2022-07-29T02:14:24;96143.75;;;20.48;68.93
31357;BME280;60001;48.404;11.738;2022-07-29T02:16:02;96139.81;;;20.45;70.13
31357;BME280;60001;48.404;11.738;2022-07-29T02:17:41;96136.34;;;20.45;69.89
31357;BME280;60001;48.404;11.738;2022-07-29T02:19:18;96141.41;;;20.46;69.20
31357;BME280;60001;48.404;11.738;2022-07-29T02:20:54;96145.44;;;20.44;69.63
31357;BME280;60001;48.404;11.738;2022-07-29T02:22:30;96151.63;;;20.44;69.57
31357;BME280;60001;48.404;11.738;2022-07-29T02:24:04;96137.13;;;20.45;69.32
31357;BME280;60001;48.404;11.738;2022-07-29T02:25:37;96134.91;;;20.47;69.58
31357;BME280;60001;48.404;11.738;2022-07-29T02:27:11;96138.84;;;20.50;68.88
31357;BME280;60001;48.404;11.738;2022-07-29T02:28:45;96136.50;;;20.48;68.99
31357;BME280;60001;48.404;11.738;2022-07-29T02:30:18;96131.00;;;20.45;69.40
31357;BME280;60001;48.404;11.738;2022-07-29T02:31:54;96145.66;;;20.47;69.62
31357;BME280;60001;48.404;11.738;2022-07-29T02:33:29;96144.06;;;20.46;69.21
31357;BME280;60001;48.404;11.738;2022-07-29T02:35:03;96143.75;;;20.48;69.02
31357;BME280;60001;48.404;11.738;2022-07-29T02:36:36;96145.31;;;20.49;69.35
31357;BME280;60001;48.404;11.738;2022-07-29T02:38:12;96143.09;;;20.51;69.66
31357;BME280;60001;48.404;11.738;2022-07-29T02:40:04;96145.78;;;20.51;69.46
31357;BME280;60001;48.404;11.738;2022-07-29T02:41:41;96142.31;;;20.50;68.54
31357;BME280;60001;48.404;11.738;2022-07-29T02:43:14;96131.13;;;20.48;69.46
31357;BME280;60001;48.404;11.738;2022-07-29T02:44:46;96130.34;;;20.48;69.91
31357;BME280;60001;48.404;11.738;2022-07-29T02:46:25;96130.66;;;20.46;69.54
31357;BME280;60001;48.404;11.738;2022-07-29T02:48:00;96131.00;;;20.45;69.18
31357;BME280;60001;48.404;11.738;2022-07-29T02:49:38;96134.47;;;20.45;69.82
31357;BME280;60001;48.404;11.738;2022-07-29T02:51:19;96130.19;;;20.44;69.64
31357;BME280;60001;48.404;11.738;2022-07-29T02:52:58;96137.13;;;20.45;69.95
31357;BME280;60001;48.404;11.738;2022-07-29T02:54:38;96137.41;;;20.44;69.63
31357;BME280;60001;48.404;11.738;2022-07-29T02:56:13;96132.03;;;20.44;69.46
31357;BME280;60001;48.404;11.738;2022-07-29T02:57:51;96132.03;;;20.44;69.65
31357;BME280;60001;48.404;11.738;2022-07-29T02:59:30;96127.97;;;20.46;69.28
31357;BME280;60001;48.404;11.738;2022-07-29T03:01:13;96134.13;;;20.47;69.51
31357;BME280;60001;48.404;11.738;2022-07-29T03:02:50;96134.91;;;20.47;69.83
31357;BME280;60001;48.404;11.738;2022-07-29T03:04:27;96126.56;;;20.49;70.12
31357;BME280;60001;48.404;11.738;2022-07-29T03:06:01;96141.53;;;20.50;69.39
31357;BME280;60001;48.404;11.738;2022-07-29T03:07:39;96125.44;;;20.41;69.15
31357;BME280;60001;48.404;11.738;2022-07-29T03:09:13;96134.91;;;20.47;70.14
31357;BME280;60001;48.404;11.738;2022-07-29T03:10:46;96134.47;;;20.45;69.78
31357;BME280;60001;48.404;11.738;2022-07-29T03:12:19;96135.03;;;20.42;69.89
31357;BME280;60001;48.404;11.738;2022-07-29T03:13:51;96135.38;;;20.41;69.94
31357;BME280;60001;48.404;11.738;2022-07-29T03:15:23;96138.38;;;20.39;70.82
31357;BME280;60001;48.404;11.738;2022-07-29T03:16:56;96136.31;;;20.36;70.18
31357;BME280;60001;48.404;11.738;2022-07-29T03:18:28;96149.72;;;20.36;70.85
31357;BME280;60001;48.404;11.738;2022-07-29T03:20:02;96149.25;;;20.34;70.97
31357;BME280;60001;48.404;11.738;2022-07-29T03:21:34;96133.03;;;20.31;71.19
31357;BME280;60001;48.404;11.738;2022-07-29T03:23:07;96144.69;;;20.26;71.18
31357;BME280;60001;48.404;11.738;2022-07-29T03:24:39;96146.91;;;20.24;70.96
31357;BME280;60001;48.404;11.738;2022-07-29T03:26:11;96151.78;;;20.22;71.54
31357;BME280;60001;48.404;11.738;2022-07-29T03:27:43;96136.34;;;20.19;71.48
31357;BME280;60001;48.404;11.738;2022-07-29T03:29:15;96139.03;;;20.19;71.25
31357;BME280;60001;48.404;11.738;2022-07-29T03:30:47;96144.41;;;20.19;71.47
31357;BME280;60001;48.404;11.738;2022-07-29T03:32:18;96144.41;;;20.19;71.55
31357;BME280;60001;48.404;11.738;2022-07-29T03:33:50;96147.53;;;20.21;72.52
31357;BME280;60001;48.404;11.738;2022-07-29T03:35:22;96148.78;;;20.23;71.40
31357;BME280;60001;48.404;11.738;2022-07-29T03:36:55;96149.59;;;20.24;71.99
31357;BME280;60001;48.404;11.738;2022-07-29T03:38:30;96154.63;;;20.25;71.35
31357;BME280;60001;48.404;11.738;2022-07-29T03:40:08;96141.56;;;20.24;71.11
31357;BME280;60001;48.404;11.738;2022-07-29T03:41:44;96148.63;;;20.29;70.78
31357;BME280;60001;48.404;11.738;2022-07-29T03:43:19;96155.56;;;20.30;71.27
31357;BME280;60001;48.404;11.738;2022-07-29T03:44:53;96157.97;;;20.31;70.45
31357;BME280;60001;48.404;11.738;2022-07-29T03:46:26;96154.50;;;20.31;70.87
31357;BME280;60001;48.404;11.738;2022-07-29T03:48:05;96148.31;;;20.30;70.86
31357;BME280;60001;48.404;11.738;2022-07-29T03:49:40;96145.63;;;20.30;71.17
31357;BME280;60001;48.404;11.738;2022-07-29T03:51:15;96147.84;;;20.28;71.07
31357;BME280;60001;48.404;11.738;2022-07-29T03:52:47;96136.81;;;20.21;70.99
31357;BME280;60001;48.404;11.738;2022-07-29T03:54:20;96139.34;;;20.17;71.42
31357;BME280;60001;48.404;11.738;2022-07-29T03:55:54;96148.19;;;20.18;71.52
31357;BME280;60001;48.404;11.738;2022-07-29T03:57:28;96148.81;;;20.15;71.87
31357;BME280;60001;48.404;11.738;2022-07-29T03:59:03;96149.59;;;20.15;71.60
31357;BME280;60001;48.404;11.738;2022-07-29T04:00:36;96151.00;;;20.13;71.62
31357;BME280;60001;48.404;11.738;2022-07-29T04:02:11;96152.44;;;20.10;72.08
31357;BME280;60001;48.404;11.738;2022-07-29T04:03:43;96148.50;;;20.08;72.26
31357;BME280;60001;48.404;11.738;2022-07-29T04:05:16;96150.38;;;20.07;71.79
31357;BME280;60001;48.404;11.738;2022-07-29T04:06:49;96150.38;;;20.07;72.23
31357;BME280;60001;48.404;11.738;2022-07-29T04:08:21;96148.03;;;20.06;72.10
31357;BME280;60001;48.404;11.738;2022-07-29T04:09:53;96146.44;;;20.05;71.63
31357;BME280;60001;48.404;11.738;2022-07-29T04:11:25;96149.91;;;20.05;71.07
31357;BME280;60001;48.404;11.738;2022-07-29T04:12:57;96154.97;;;20.07;71.64
31357;BME280;60001;48.404;11.738;2022-07-29T04:14:29;96148.03;;;20.06;71.51
31357;BME280;60001;48.404;11.738;2022-07-29T04:16:01;96150.38;;;20.07;71.28
31357;BME280;60001;48.404;11.738;2022-07-29T04:17:33;96154.97;;;20.07;70.81
31357;BME280;60001;48.404;11.738;2022-07-29T04:19:04;96150.69;;;20.06;70.13
31357;BME280;60001;48.404;11.738;2022-07-29T04:20:36;96153.38;;;20.06;70.79
31357;BME280;60001;48.404;11.738;2022-07-29T04:22:09;96154.97;;;20.07;70.60
31357;BME280;60001;48.404;11.738;2022-07-29T04:23:40;96157.16;;;20.05;70.49
31357;BME280;60001;48.404;11.738;2022-07-29T04:25:15;96150.25;;;20.04;71.00
31357;BME280;60001;48.404;11.738;2022-07-29T04:26:48;96150.84;;;20.01;70.46
31357;BME280;60001;48.404;11.738;2022-07-29T04:28:20;96163.47;;;20.00;70.71
31357;BME280;60001;48.404;11.738;2022-07-29T04:29:51;96153.06;;;19.98;71.13
31357;BME280;60001;48.404;11.738;2022-07-29T04:31:22;96151.50;;;19.97;71.40
31357;BME280;60001;48.404;11.738;2022-07-29T04:32:54;96160.66;;;19.96;71.83
31357;BME280;60001;48.404;11.738;2022-07-29T04:34:25;96157.19;;;19.96;71.65
31357;BME280;60001;48.404;11.738;2022-07-29T04:35:57;96161.72;;;19.95;71.47
31357;BME280;60001;48.404;11.738;2022-07-29T04:37:31;96161.25;;;19.93;71.88
31357;BME280;60001;48.404;11.738;2022-07-29T04:39:03;96158.91;;;19.92;71.59
31357;BME280;60001;48.404;11.738;2022-07-29T04:40:35;96161.91;;;19.90;72.43
31357;BME280;60001;48.404;11.738;2022-07-29T04:42:07;96156.53;;;19.90;72.40
31357;BME280;60001;48.404;11.738;2022-07-29T04:43:38;96158.56;;;19.93;72.30
31357;BME280;60001;48.404;11.738;2022-07-29T04:45:10;96160.47;;;19.93;72.26
31357;BME280;60001;48.404;11.738;2022-07-29T04:46:42;96160.94;;;19.95;72.59
31357;BME280;60001;48.404;11.738;2022-07-29T04:48:14;96155.28;;;19.96;72.77
31357;BME280;60001;48.404;11.738;2022-07-29T04:49:46;96158.44;;;19.98;71.96
31357;BME280;60001;48.404;11.738;2022-07-29T04:51:18;96158.91;;;20.01;72.62
31357;BME280;60001;48.404;11.738;2022-07-29T04:52:51;96156.38;;;20.04;72.11
31357;BME280;60001;48.404;11.738;2022-07-29T04:54:23;96156.06;;;20.06;72.21
31357;BME280;60001;48.404;11.738;2022-07-29T04:55:55;96158.09;;;20.09;72.37
31357;BME280;60001;48.404;11.738;2022-07-29T04:57:27;96151.00;;;20.13;73.09
31357;BME280;60001;48.404;11.738;2022-07-29T04:58:58;96150.69;;;20.14;73.03
31357;BME280;60001;48.404;11.738;2022-07-29T05:00:30;96152.91;;;20.12;73.12
31357;BME280;60001;48.404;11.738;2022-07-29T05:02:02;96156.69;;;20.11;73.00
31357;BME280;60001;48.404;11.738;2022-07-29T05:03:34;96160.16;;;20.12;72.78
31357;BME280;60001;48.404;11.738;2022-07-29T05:05:06;96169.13;;;20.16;72.18
31357;BME280;60001;48.404;11.738;2022-07-29T05:06:38;96173.09;;;20.18;72.59
31357;BME280;60001;48.404;11.738;2022-07-29T05:08:11;96169.31;;;20.19;72.51
31357;BME280;60001;48.404;11.738;2022-07-29T05:09:43;96165.97;;;20.22;72.09
31357;BME280;60001;48.404;11.738;2022-07-29T05:11:15;96167.56;;;20.23;72.09
31357;BME280;60001;48.404;11.738;2022-07-29T05:12:46;96175.31;;;20.25;71.65
31357;BME280;60001;48.404;11.738;2022-07-29T05:14:18;96179.56;;;20.26;72.30
31357;BME280;60001;48.404;11.738;2022-07-29T05:15:50;96176.88;;;20.26;71.73
31357;BME280;60001;48.404;11.738;2022-07-29T05:17:22;96172.63;;;20.25;71.56
31357;BME280;60001;48.404;11.738;2022-07-29T05:18:54;96175.78;;;20.27;71.33
31357;BME280;60001;48.404;11.738;2022-07-29T05:20:25;96173.09;;;20.27;71.04
31357;BME280;60001;48.404;11.738;2022-07-29T05:21:58;96180.03;;;20.28;71.01
31357;BME280;60001;48.404;11.738;2022-07-29T05:23:32;96181.59;;;20.29;71.55
31357;BME280;60001;48.404;11.738;2022-07-29T05:25:04;96177.97;;;20.34;71.84
31357;BME280;60001;48.404;11.738;2022-07-29T05:26:36;96173.84;;;20.36;72.24
31357;BME280;60001;48.404;11.738;2022-07-29T05:28:08;96176.25;;;20.38;72.15
31357;BME280;60001;48.404;11.738;2022-07-29T05:29:40;96185.09;;;20.38;71.81
31357;BME280;60001;48.404;11.738;2022-07-29T05:31:12;96179.22;;;20.36;71.47
31357;BME280;60001;48.404;11.738;2022-07-29T05:32:44;96178.75;;;20.34;71.53
31357;BME280;60001;48.404;11.738;2022-07-29T05:34:16;96185.69;;;20.35;71.94
31357;BME280;60001;48.404;11.738;2022-07-29T05:35:47;96191.06;;;20.35;71.34
31357;BME280;60001;48.404;11.738;2022-07-29T05:37:19;96184.44;;;20.33;71.24
31357;BME280;60001;48.404;11.738;2022-07-29T05:38:53;96186.47;;;20.36;72.21
31357;BME280;60001;48.404;11.738;2022-07-29T05:40:24;96184.28;;;20.38;71.96
31357;BME280;60001;48.404;11.738;2022-07-29T05:41:56;96187.91;;;20.42;72.39
31357;BME280;60001;48.404;11.738;2022-07-29T05:43:28;96193.13;;;20.47;71.67
31357;BME280;60001;48.404;11.738;2022-07-29T05:45:00;96196.44;;;20.52;71.96
31357;BME280;60001;48.404;11.738;2022-07-29T05:46:33;96196.75;;;20.60;71.59
31357;BME280;60001;48.404;11.738;2022-07-29T05:48:04;96195.94;;;20.68;71.91
31357;BME280;60001;48.404;11.738;2022-07-29T05:49:36;96194.50;;;20.79;72.23
31357;BME280;60001;48.404;11.738;2022-07-29T05:51:08;96194.94;;;20.90;71.98
31357;BME280;60001;48.404;11.738;2022-07-29T05:52:40;96201.84;;;20.99;71.64
31357;BME280;60001;48.404;11.738;2022-07-29T05:54:13;96200.28;;;21.07;70.01
31357;BME280;60001;48.404;11.738;2022-07-29T05:55:45;96202.16;;;21.15;69.27
31357;BME280;60001;48.404;11.738;2022-07-29T05:57:17;96193.88;;;21.20;68.96
31357;BME280;60001;48.404;11.738;2022-07-29T05:58:49;96195.16;;;21.23;69.28
31357;BME280;60001;48.404;11.738;2022-07-29T06:00:21;96198.75;;;21.27;68.15
31357;BME280;60001;48.404;11.738;2022-07-29T06:01:53;96200.84;;;21.30;68.75
31357;BME280;60001;48.404;11.738;2022-07-29T06:03:24;96213.00;;;21.36;68.06
31357;BME280;60001;48.404;11.738;2022-07-29T06:04:57;96209.81;;;21.43;68.32
31357;BME280;60001;48.404;11.738;2022-07-29T06:06:29;96210.72;;;21.47;67.48
31357;BME280;60001;48.404;11.738;2022-07-29T06:08:00;96206.28;;;21.51;67.37
31357;BME280;60001;48.404;11.738;2022-07-29T06:09:34;96209.59;;;21.56;67.07
31357;BME280;60001;48.404;11.738;2022-07-29T06:11:06;96209.72;;;21.60;66.53
31357;BME280;60001;48.404;11.738;2022-07-29T06:12:38;96208.09;;;21.68;67.11
31357;BME280;60001;48.404;11.738;2022-07-29T06:14:10;96213.72;;;21.75;66.38
31357;BME280;60001;48.404;11.738;2022-07-29T06:15:42;96212.31;;;21.77;65.79
31357;BME280;60001;48.404;11.738;2022-07-29T06:17:15;96214.00;;;21.82;66.09
31357;BME280;60001;48.404;11.738;2022-07-29T06:18:47;96220.00;;;21.87;65.75
31357;BME280;60001;48.404;11.738;2022-07-29T06:20:19;96219.47;;;21.94;65.65
31357;BME280;60001;48.404;11.738;2022-07-29T06:21:51;96220.41;;;21.98;65.16
31357;BME280;60001;48.404;11.738;2022-07-29T06:23:23;96223.50;;;22.09;64.91
31357;BME280;60001;48.404;11.738;2022-07-29T06:24:56;96231.66;;;22.21;65.02
31357;BME280;60001;48.404;11.738;2022-07-29T06:26:27;96220.81;;;22.30;64.17
31357;BME280;60001;48.404;11.738;2022-07-29T06:27:59;96216.28;;;22.42;64.09
31357;BME280;60001;48.404;11.738;2022-07-29T06:29:31;96218.47;;;22.49;62.70
31357;BME280;60001;48.404;11.738;2022-07-29T06:31:03;96218.72;;;22.56;62.48
31357;BME280;60001;48.404;11.738;2022-07-29T06:32:38;96218.03;;;22.59;61.64
31357;BME280;60001;48.404;11.738;2022-07-29T06:34:09;96214.38;;;22.64;61.70
31357;BME280;60001;48.404;11.738;2022-07-29T06:35:41;96211.13;;;22.70;60.97
31357;BME280;60001;48.404;11.738;2022-07-29T06:37:14;96210.84;;;22.84;60.79
31357;BME280;60001;48.404;11.738;2022-07-29T06:38:45;96211.94;;;23.04;60.51
31357;BME280;60001;48.404;11.738;2022-07-29T06:40:19;96210.88;;;23.30;59.89
31357;BME280;60001;48.404;11.738;2022-07-29T06:42:08;96206.81;;;23.48;58.34
31357;BME280;60001;48.404;11.738;2022-07-29T06:43:40;96207.72;;;23.64;58.07
31357;BME280;60001;48.404;11.738;2022-07-29T06:45:12;96208.88;;;23.75;57.13
31357;BME280;60001;48.404;11.738;2022-07-29T06:46:44;96212.78;;;23.90;57.29
31357;BME280;60001;48.404;11.738;2022-07-29T06:48:19;96213.34;;;23.96;57.10
31357;BME280;60001;48.404;11.738;2022-07-29T06:49:50;96217.25;;;24.11;56.72
31357;BME280;60001;48.404;11.738;2022-07-29T06:51:22;96217.22;;;24.23;56.75
31357;BME280;60001;48.404;11.738;2022-07-29T06:52:54;96226.09;;;24.36;56.62
31357;BME280;60001;48.404;11.738;2022-07-29T06:54:25;96213.34;;;24.48;56.49
31357;BME280;60001;48.404;11.738;2022-07-29T06:55:59;96216.28;;;24.71;56.39
31357;BME280;60001;48.404;11.738;2022-07-29T06:57:31;96206.75;;;24.90;54.40
31357;BME280;60001;48.404;11.738;2022-07-29T06:59:03;96212.41;;;25.00;53.05
31357;BME280;60001;48.404;11.738;2022-07-29T07:00:35;96205.25;;;25.04;52.23
31357;BME280;60001;48.404;11.738;2022-07-29T07:02:07;96213.69;;;25.34;53.13
31357;BME280;60001;48.404;11.738;2022-07-29T07:03:39;96220.50;;;25.76;51.86
31357;BME280;60001;48.404;11.738;2022-07-29T07:05:10;96215.53;;;26.13;50.84
31357;BME280;60001;48.404;11.738;2022-07-29T07:06:42;96214.22;;;26.42;50.02
31357;BME280;60001;48.404;11.738;2022-07-29T07:08:14;96221.28;;;26.66;49.03
31357;BME280;60001;48.404;11.738;2022-07-29T07:09:46;96216.78;;;26.93;48.32
31357;BME280;60001;48.404;11.738;2022-07-29T07:11:19;96211.53;;;27.03;47.12
31357;BME280;60001;48.404;11.738;2022-07-29T07:12:51;96216.34;;;27.10;46.94
31357;BME280;60001;48.404;11.738;2022-07-29T07:14:22;96220.50;;;27.27;47.52
31357;BME280;60001;48.404;11.738;2022-07-29T07:15:53;96220.88;;;27.48;47.22
31357;BME280;60001;48.404;11.738;2022-07-29T07:17:25;96221.22;;;27.47;45.76
31357;BME280;60001;48.404;11.738;2022-07-29T07:18:57;96223.91;;;27.47;45.96
31357;BME280;60001;48.404;11.738;2022-07-29T07:20:29;96205.31;;;27.45;46.16
31357;BME280;60001;48.404;11.738;2022-07-29T07:22:01;96218.78;;;27.65;45.85
31357;BME280;60001;48.404;11.738;2022-07-29T07:23:33;96222.91;;;27.78;45.76
31357;BME280;60001;48.404;11.738;2022-07-29T07:25:05;96227.97;;;27.79;44.43
31357;BME280;60001;48.404;11.738;2022-07-29T07:26:38;96223.00;;;27.85;45.18
31357;BME280;60001;48.404;11.738;2022-07-29T07:28:10;96225.03;;;27.92;44.41
31357;BME280;60001;48.404;11.738;2022-07-29T07:29:42;96221.66;;;27.98;44.94
31357;BME280;60001;48.404;11.738;2022-07-29T07:31:14;96223.00;;;28.11;43.98
31357;BME280;60001;48.404;11.738;2022-07-29T07:32:46;96229.44;;;28.00;43.37
31357;BME280;60001;48.404;11.738;2022-07-29T07:34:18;96230.09;;;27.93;43.92
31357;BME280;60001;48.404;11.738;2022-07-29T07:35:49;96225.94;;;27.99;44.83
31357;BME280;60001;48.404;11.738;2022-07-29T07:37:21;96230.28;;;28.30;44.18
31357;BME280;60001;48.404;11.738;2022-07-29T07:38:55;96221.94;;;28.80;44.06
31357;BME280;60001;48.404;11.738;2022-07-29T07:40:26;96222.81;;;29.25;42.41
31357;BME280;60001;48.404;11.738;2022-07-29T07:42:00;96222.03;;;29.28;41.45
31357;BME280;60001;48.404;11.738;2022-07-29T07:43:31;96223.75;;;29.43;40.97
31357;BME280;60001;48.404;11.738;2022-07-29T07:45:04;96220.03;;;29.58;41.03
31357;BME280;60001;48.404;11.738;2022-07-29T07:46:36;96215.91;;;29.79;41.03
31357;BME280;60001;48.404;11.738;2022-07-29T07:48:08;96212.66;;;30.14;40.11
31357;BME280;60001;48.404;11.738;2022-07-29T07:49:40;96216.25;;;30.36;40.20
31357;BME280;60001;48.404;11.738;2022-07-29T07:51:12;96214.84;;;30.67;40.53
31357;BME280;60001;48.404;11.738;2022-07-29T07:52:48;96215.25;;;30.72;38.48
31357;BME280;60001;48.404;11.738;2022-07-29T07:54:20;96215.66;;;30.74;38.85
31357;BME280;60001;48.404;11.738;2022-07-29T07:55:52;96204.34;;;30.72;39.38
31357;BME280;60001;48.404;11.738;2022-07-29T07:57:25;96209.44;;;30.77;38.24
31357;BME280;60001;48.404;11.738;2022-07-29T07:58:57;96209.44;;;30.74;39.07
31357;BME280;60001;48.404;11.738;2022-07-29T08:00:32;96204.03;;;30.88;38.63
31357;BME280;60001;48.404;11.738;2022-07-29T08:02:04;96203.25;;;30.91;37.41
31357;BME280;60001;48.404;11.738;2022-07-29T08:03:36;96202.06;;;30.89;37.71
31357;BME280;60001;48.404;11.738;2022-07-29T08:05:08;96204.03;;;30.99;38.90
31357;BME280;60001;48.404;11.738;2022-07-29T08:06:40;96199.03;;;31.26;37.16
31357;BME280;60001;48.404;11.738;2022-07-29T08:08:12;96199.44;;;31.53;37.22
31357;BME280;60001;48.404;11.738;2022-07-29T08:09:44;96214.25;;;31.73;36.65
31357;BME280;60001;48.404;11.738;2022-07-29T08:11:16;96210.34;;;31.60;36.79
31357;BME280;60001;48.404;11.738;2022-07-29T08:12:48;96209.19;;;31.61;37.24